sensor_id;sensor_type;location;lat;lon;timestamp;P1;durP1;ratioP1;P2;durP2;ratioP2
40204;SDS011;26963;42.666;23.366;2024-01-10T00:01:51;6.37;;;3.10;;
40204;SDS011;26963;42.666;23.366;2024-01-10T00:04:18;5.57;;;3.57;;
40204;SDS011;26963;42.666;23.366;2024-01-10T00:06:45;6.77;;;3.73;;
40204;SDS011;26963;42.666;23.366;2024-01-10T00:09:10;8.00;;;3.70;;
40204;SDS011;26963;42.666;23.366;2024-01-10T00:11:36;8.07;;;3.93;;
40204;SDS011;26963;42.666;23.366;2024-01-10T00:14:02;6.87;;;3.90;;
40204;SDS011;26963;42.666;23.366;2024-01-10T00:16:28;6.00;;;3.50;;
40204;SDS011;26963;42.666;23.366;2024-01-10T00:18:54;6.40;;;3.90;;
40204;SDS011;26963;42.666;23.366;2024-01-10T00:21:20;7.23;;;3.70;;
40204;SDS011;26963;42.666;23.366;2024-01-10T00:23:45;7.30;;;4.27;;
40204;SDS011;26963;42.666;23.366;2024-01-10T00:26:11;7.17;;;4.33;;
40204;SDS011;26963;42.666;23.366;2024-01-10T00:28:36;9.77;;;4.77;;
40204;SDS011;26963;42.666;23.366;2024-01-10T00:31:02;9.20;;;4.77;;
40204;SDS011;26963;42.666;23.366;2024-01-10T00:33:28;8.63;;;5.00;;
40204;SDS011;26963;42.666;23.366;2024-01-10T00:35:53;10.73;;;5.37;;
40204;SDS011;26963;42.666;23.366;2024-01-10T00:38:19;8.13;;;4.93;;
40204;SDS011;26963;42.666;23.366;2024-01-10T00:40:44;9.23;;;4.90;;
40204;SDS011;26963;42.666;23.366;2024-01-10T00:43:10;8.03;;;3.70;;
40204;SDS011;26963;42.666;23.366;2024-01-10T00:45:36;8.57;;;4.70;;
40204;SDS011;26963;42.666;23.366;2024-01-10T00:48:01;7.33;;;4.37;;
40204;SDS011;26963;42.666;23.366;2024-01-10T00:50:27;7.20;;;4.10;;
40204;SDS011;26963;42.666;23.366;2024-01-10T00:52:52;7.13;;;4.00;;
40204;SDS011;26963;42.666;23.366;2024-01-10T00:55:18;6.80;;;3.90;;
40204;SDS011;26963;42.666;23.366;2024-01-10T00:57:44;9.93;;;4.60;;
40204;SDS011;26963;42.666;23.366;2024-01-10T01:00:10;7.27;;;4.10;;
40204;SDS011;26963;42.666;23.366;2024-01-10T01:02:36;9.50;;;4.53;;
40204;SDS011;26963;42.666;23.366;2024-01-10T01:05:04;8.83;;;5.17;;
40204;SDS011;26963;42.666;23.366;2024-01-10T01:07:32;7.27;;;4.50;;
40204;SDS011;26963;42.666;23.366;2024-01-10T01:09:57;7.63;;;4.43;;
40204;SDS011;26963;42.666;23.366;2024-01-10T01:12:23;6.50;;;4.30;;
40204;SDS011;26963;42.666;23.366;2024-01-10T01:14:48;7.67;;;4.40;;
40204;SDS011;26963;42.666;23.366;2024-01-10T01:17:14;9.60;;;4.90;;
40204;SDS011;26963;42.666;23.366;2024-01-10T01:19:39;7.30;;;4.47;;
40204;SDS011;26963;42.666;23.366;2024-01-10T01:22:05;8.13;;;4.30;;
40204;SDS011;26963;42.666;23.366;2024-01-10T01:24:31;10.13;;;5.10;;
40204;SDS011;26963;42.666;23.366;2024-01-10T01:26:56;7.50;;;4.40;;
40204;SDS011;26963;42.666;23.366;2024-01-10T01:29:22;7.73;;;4.33;;
40204;SDS011;26963;42.666;23.366;2024-01-10T01:31:48;6.80;;;4.00;;
40204;SDS011;26963;42.666;23.366;2024-01-10T01:34:13;7.00;;;3.80;;
40204;SDS011;26963;42.666;23.366;2024-01-10T01:36:39;6.40;;;3.57;;
40204;SDS011;26963;42.666;23.366;2024-01-10T01:39:05;7.07;;;3.70;;
40204;SDS011;26963;42.666;23.366;2024-01-10T01:41:31;6.17;;;3.77;;
40204;SDS011;26963;42.666;23.366;2024-01-10T01:43:56;7.10;;;4.27;;
40204;SDS011;26963;42.666;23.366;2024-01-10T01:46:22;7.97;;;3.77;;
40204;SDS011;26963;42.666;23.366;2024-01-10T01:48:48;7.97;;;4.00;;
40204;SDS011;26963;42.666;23.366;2024-01-10T01:51:15;6.13;;;3.70;;
40204;SDS011;26963;42.666;23.366;2024-01-10T01:53:44;6.00;;;3.90;;
40204;SDS011;26963;42.666;23.366;2024-01-10T01:56:09;5.97;;;3.93;;
40204;SDS011;26963;42.666;23.366;2024-01-10T01:58:38;9.57;;;4.00;;
40204;SDS011;26963;42.666;23.366;2024-01-10T02:01:05;7.33;;;3.87;;
40204;SDS011;26963;42.666;23.366;2024-01-10T02:03:31;7.67;;;3.83;;
40204;SDS011;26963;42.666;23.366;2024-01-10T02:05:57;5.50;;;3.53;;
40204;SDS011;26963;42.666;23.366;2024-01-10T02:08:24;6.63;;;4.03;;
40204;SDS011;26963;42.666;23.366;2024-01-10T02:10:49;10.37;;;3.87;;
40204;SDS011;26963;42.666;23.366;2024-01-10T02:13:16;7.33;;;3.90;;
40204;SDS011;26963;42.666;23.366;2024-01-10T02:15:42;6.27;;;3.67;;
40204;SDS011;26963;42.666;23.366;2024-01-10T02:18:08;5.63;;;3.53;;
40204;SDS011;26963;42.666;23.366;2024-01-10T02:20:37;8.73;;;3.70;;
40204;SDS011;26963;42.666;23.366;2024-01-10T02:23:03;6.40;;;3.90;;
40204;SDS011;26963;42.666;23.366;2024-01-10T02:25:29;5.97;;;3.90;;
40204;SDS011;26963;42.666;23.366;2024-01-10T02:27:55;6.80;;;3.73;;
40204;SDS011;26963;42.666;23.366;2024-01-10T02:30:20;7.37;;;3.97;;
40204;SDS011;26963;42.666;23.366;2024-01-10T02:32:46;8.67;;;4.30;;
40204;SDS011;26963;42.666;23.366;2024-01-10T02:35:11;7.87;;;4.23;;
40204;SDS011;26963;42.666;23.366;2024-01-10T02:37:37;7.77;;;3.83;;
40204;SDS011;26963;42.666;23.366;2024-01-10T02:40:03;7.50;;;4.00;;
40204;SDS011;26963;42.666;23.366;2024-01-10T02:42:29;6.90;;;4.00;;
40204;SDS011;26963;42.666;23.366;2024-01-10T02:44:55;7.40;;;3.93;;
40204;SDS011;26963;42.666;23.366;2024-01-10T02:47:21;7.87;;;5.00;;
40204;SDS011;26963;42.666;23.366;2024-01-10T02:49:47;8.43;;;4.43;;
40204;SDS011;26963;42.666;23.366;2024-01-10T02:52:12;7.80;;;4.37;;
40204;SDS011;26963;42.666;23.366;2024-01-10T02:54:38;7.17;;;4.37;;
40204;SDS011;26963;42.666;23.366;2024-01-10T02:57:03;5.67;;;4.07;;
40204;SDS011;26963;42.666;23.366;2024-01-10T02:59:29;6.20;;;4.10;;
40204;SDS011;26963;42.666;23.366;2024-01-10T03:01:54;8.13;;;4.30;;
40204;SDS011;26963;42.666;23.366;2024-01-10T03:04:20;7.33;;;4.60;;
40204;SDS011;26963;42.666;23.366;2024-01-10T03:06:46;7.53;;;4.77;;
40204;SDS011;26963;42.666;23.366;2024-01-10T03:09:11;7.03;;;4.30;;
40204;SDS011;26963;42.666;23.366;2024-01-10T03:11:37;6.90;;;4.70;;
40204;SDS011;26963;42.666;23.366;2024-01-10T03:14:03;7.00;;;4.80;;
40204;SDS011;26963;42.666;23.366;2024-01-10T03:16:32;8.03;;;4.87;;
40204;SDS011;26963;42.666;23.366;2024-01-10T03:18:58;7.47;;;4.97;;
40204;SDS011;26963;42.666;23.366;2024-01-10T03:21:24;7.77;;;5.13;;
40204;SDS011;26963;42.666;23.366;2024-01-10T03:23:52;7.83;;;5.37;;
40204;SDS011;26963;42.666;23.366;2024-01-10T03:26:19;7.10;;;5.10;;
40204;SDS011;26963;42.666;23.366;2024-01-10T03:28:45;7.20;;;4.90;;
40204;SDS011;26963;42.666;23.366;2024-01-10T03:31:10;8.20;;;5.23;;
40204;SDS011;26963;42.666;23.366;2024-01-10T03:33:36;9.77;;;5.13;;
40204;SDS011;26963;42.666;23.366;2024-01-10T03:36:03;7.40;;;4.83;;
40204;SDS011;26963;42.666;23.366;2024-01-10T03:38:29;8.57;;;5.00;;
40204;SDS011;26963;42.666;23.366;2024-01-10T03:40:54;6.93;;;4.33;;
40204;SDS011;26963;42.666;23.366;2024-01-10T03:43:20;7.57;;;4.73;;
40204;SDS011;26963;42.666;23.366;2024-01-10T03:45:45;8.30;;;4.70;;
40204;SDS011;26963;42.666;23.366;2024-01-10T03:48:11;8.33;;;4.80;;
40204;SDS011;26963;42.666;23.366;2024-01-10T03:50:36;8.10;;;4.90;;
40204;SDS011;26963;42.666;23.366;2024-01-10T03:53:02;9.07;;;5.37;;
40204;SDS011;26963;42.666;23.366;2024-01-10T03:55:28;8.70;;;4.60;;
40204;SDS011;26963;42.666;23.366;2024-01-10T03:57:55;9.23;;;4.60;;
40204;SDS011;26963;42.666;23.366;2024-01-10T04:00:21;6.87;;;4.33;;
40204;SDS011;26963;42.666;23.366;2024-01-10T04:02:47;9.23;;;4.57;;
40204;SDS011;26963;42.666;23.366;2024-01-10T04:05:12;5.83;;;4.00;;
40204;SDS011;26963;42.666;23.366;2024-01-10T04:07:41;6.60;;;4.00;;
40204;SDS011;26963;42.666;23.366;2024-01-10T04:10:08;6.17;;;4.03;;
40204;SDS011;26963;42.666;23.366;2024-01-10T04:12:45;6.00;;;3.77;;
40204;SDS011;26963;42.666;23.366;2024-01-10T04:15:11;8.93;;;4.97;;
40204;SDS011;26963;42.666;23.366;2024-01-10T04:17:37;11.80;;;5.40;;
40204;SDS011;26963;42.666;23.366;2024-01-10T04:20:04;8.23;;;4.47;;
40204;SDS011;26963;42.666;23.366;2024-01-10T04:22:30;12.00;;;4.97;;
40204;SDS011;26963;42.666;23.366;2024-01-10T04:24:59;6.50;;;4.10;;
40204;SDS011;26963;42.666;23.366;2024-01-10T04:27:26;6.20;;;3.90;;
40204;SDS011;26963;42.666;23.366;2024-01-10T04:29:52;6.37;;;3.90;;
40204;SDS011;26963;42.666;23.366;2024-01-10T04:32:18;7.43;;;4.73;;
40204;SDS011;26963;42.666;23.366;2024-01-10T04:34:44;6.60;;;3.73;;
40204;SDS011;26963;42.666;23.366;2024-01-10T04:37:10;7.70;;;4.30;;
40204;SDS011;26963;42.666;23.366;2024-01-10T04:39:35;6.13;;;3.77;;
40204;SDS011;26963;42.666;23.366;2024-01-10T04:42:03;7.73;;;4.43;;
40204;SDS011;26963;42.666;23.366;2024-01-10T04:44:29;9.30;;;5.00;;
40204;SDS011;26963;42.666;23.366;2024-01-10T04:46:55;7.40;;;4.30;;
40204;SDS011;26963;42.666;23.366;2024-01-10T04:49:20;7.17;;;3.77;;
40204;SDS011;26963;42.666;23.366;2024-01-10T04:51:46;7.10;;;4.30;;
40204;SDS011;26963;42.666;23.366;2024-01-10T04:54:12;7.40;;;4.30;;
40204;SDS011;26963;42.666;23.366;2024-01-10T04:56:38;8.70;;;4.40;;
40204;SDS011;26963;42.666;23.366;2024-01-10T04:59:04;6.40;;;4.50;;
40204;SDS011;26963;42.666;23.366;2024-01-10T05:01:30;8.13;;;4.60;;
40204;SDS011;26963;42.666;23.366;2024-01-10T05:03:57;7.70;;;4.60;;
40204;SDS011;26963;42.666;23.366;2024-01-10T05:06:23;9.03;;;4.97;;
40204;SDS011;26963;42.666;23.366;2024-01-10T05:08:48;9.33;;;4.40;;
40204;SDS011;26963;42.666;23.366;2024-01-10T05:11:14;6.43;;;4.30;;
40204;SDS011;26963;42.666;23.366;2024-01-10T05:13:42;9.40;;;4.53;;
40204;SDS011;26963;42.666;23.366;2024-01-10T05:16:08;6.57;;;4.07;;
40204;SDS011;26963;42.666;23.366;2024-01-10T05:18:34;8.47;;;4.30;;
40204;SDS011;26963;42.666;23.366;2024-01-10T05:21:00;7.20;;;4.53;;
40204;SDS011;26963;42.666;23.366;2024-01-10T05:23:26;11.50;;;6.13;;
40204;SDS011;26963;42.666;23.366;2024-01-10T05:25:52;11.33;;;6.33;;
40204;SDS011;26963;42.666;23.366;2024-01-10T05:28:18;8.60;;;5.20;;
40204;SDS011;26963;42.666;23.366;2024-01-10T05:30:44;9.30;;;4.87;;
40204;SDS011;26963;42.666;23.366;2024-01-10T05:33:09;8.20;;;4.90;;
40204;SDS011;26963;42.666;23.366;2024-01-10T05:35:36;7.40;;;4.50;;
40204;SDS011;26963;42.666;23.366;2024-01-10T05:38:05;8.43;;;4.87;;
40204;SDS011;26963;42.666;23.366;2024-01-10T05:40:30;11.80;;;5.50;;
40204;SDS011;26963;42.666;23.366;2024-01-10T05:42:57;6.77;;;4.67;;
40204;SDS011;26963;42.666;23.366;2024-01-10T05:45:24;7.73;;;4.70;;
40204;SDS011;26963;42.666;23.366;2024-01-10T05:47:51;7.97;;;4.57;;
40204;SDS011;26963;42.666;23.366;2024-01-10T05:50:16;10.07;;;4.07;;
40204;SDS011;26963;42.666;23.366;2024-01-10T05:52:42;9.93;;;4.43;;
40204;SDS011;26963;42.666;23.366;2024-01-10T05:55:09;8.53;;;4.00;;
40204;SDS011;26963;42.666;23.366;2024-01-10T05:57:38;8.33;;;4.50;;
40204;SDS011;26963;42.666;23.366;2024-01-10T06:00:04;6.97;;;4.70;;
40204;SDS011;26963;42.666;23.366;2024-01-10T06:02:37;7.40;;;4.23;;
40204;SDS011;26963;42.666;23.366;2024-01-10T06:05:10;7.95;;;4.38;;
40204;SDS011;26963;42.666;23.366;2024-01-10T06:07:39;7.50;;;4.67;;
40204;SDS011;26963;42.666;23.366;2024-01-10T06:10:08;11.68;;;5.10;;
40204;SDS011;26963;42.666;23.366;2024-01-10T06:12:35;8.67;;;5.40;;
40204;SDS011;26963;42.666;23.366;2024-01-10T06:15:00;9.30;;;5.33;;
40204;SDS011;26963;42.666;23.366;2024-01-10T06:17:26;11.93;;;5.60;;
40204;SDS011;26963;42.666;23.366;2024-01-10T06:19:52;9.53;;;5.23;;
40204;SDS011;26963;42.666;23.366;2024-01-10T06:22:17;10.17;;;5.00;;
40204;SDS011;26963;42.666;23.366;2024-01-10T06:24:43;8.97;;;5.13;;
40204;SDS011;26963;42.666;23.366;2024-01-10T06:27:09;8.97;;;5.03;;
40204;SDS011;26963;42.666;23.366;2024-01-10T06:29:35;9.80;;;4.57;;
40204;SDS011;26963;42.666;23.366;2024-01-10T06:32:01;7.93;;;3.83;;
40204;SDS011;26963;42.666;23.366;2024-01-10T06:34:31;7.87;;;3.87;;
40204;SDS011;26963;42.666;23.366;2024-01-10T06:36:57;7.40;;;4.00;;
40204;SDS011;26963;42.666;23.366;2024-01-10T06:39:23;8.50;;;4.47;;
40204;SDS011;26963;42.666;23.366;2024-01-10T06:41:49;7.83;;;3.87;;
40204;SDS011;26963;42.666;23.366;2024-01-10T06:44:15;8.30;;;4.20;;
40204;SDS011;26963;42.666;23.366;2024-01-10T06:46:43;7.90;;;3.93;;
40204;SDS011;26963;42.666;23.366;2024-01-10T06:49:09;10.00;;;4.60;;
40204;SDS011;26963;42.666;23.366;2024-01-10T06:51:35;24.97;;;13.27;;
40204;SDS011;26963;42.666;23.366;2024-01-10T06:54:01;11.53;;;5.93;;
40204;SDS011;26963;42.666;23.366;2024-01-10T06:56:30;9.90;;;5.00;;
40204;SDS011;26963;42.666;23.366;2024-01-10T06:58:57;8.83;;;5.10;;
40204;SDS011;26963;42.666;23.366;2024-01-10T07:01:23;10.80;;;5.67;;
40204;SDS011;26963;42.666;23.366;2024-01-10T07:03:49;15.07;;;6.40;;
40204;SDS011;26963;42.666;23.366;2024-01-10T07:06:14;15.37;;;7.43;;
40204;SDS011;26963;42.666;23.366;2024-01-10T07:08:40;13.13;;;7.00;;
40204;SDS011;26963;42.666;23.366;2024-01-10T07:11:15;13.23;;;7.43;;
40204;SDS011;26963;42.666;23.366;2024-01-10T07:13:42;12.27;;;6.23;;
40204;SDS011;26963;42.666;23.366;2024-01-10T07:16:08;16.20;;;5.77;;
40204;SDS011;26963;42.666;23.366;2024-01-10T07:18:34;10.10;;;6.00;;
40204;SDS011;26963;42.666;23.366;2024-01-10T07:20:59;8.80;;;4.90;;
40204;SDS011;26963;42.666;23.366;2024-01-10T07:23:25;9.43;;;5.13;;
40204;SDS011;26963;42.666;23.366;2024-01-10T07:25:51;8.53;;;4.37;;
40204;SDS011;26963;42.666;23.366;2024-01-10T07:28:17;9.47;;;4.83;;
40204;SDS011;26963;42.666;23.366;2024-01-10T07:30:44;9.40;;;5.07;;
40204;SDS011;26963;42.666;23.366;2024-01-10T07:33:10;8.60;;;5.00;;
40204;SDS011;26963;42.666;23.366;2024-01-10T07:35:36;8.87;;;5.10;;
40204;SDS011;26963;42.666;23.366;2024-01-10T07:38:05;7.10;;;3.83;;
40204;SDS011;26963;42.666;23.366;2024-01-10T07:40:34;8.47;;;4.20;;
40204;SDS011;26963;42.666;23.366;2024-01-10T07:43:00;8.40;;;4.43;;
40204;SDS011;26963;42.666;23.366;2024-01-10T07:45:26;7.23;;;4.57;;
40204;SDS011;26963;42.666;23.366;2024-01-10T07:47:51;9.40;;;5.37;;
40204;SDS011;26963;42.666;23.366;2024-01-10T07:50:17;9.10;;;5.10;;
40204;SDS011;26963;42.666;23.366;2024-01-10T07:52:44;9.97;;;5.33;;
40204;SDS011;26963;42.666;23.366;2024-01-10T07:55:11;8.07;;;5.33;;
40204;SDS011;26963;42.666;23.366;2024-01-10T07:57:37;9.33;;;4.70;;
40204;SDS011;26963;42.666;23.366;2024-01-10T08:00:05;9.37;;;5.10;;
40204;SDS011;26963;42.666;23.366;2024-01-10T08:02:35;12.82;;;6.45;;
40204;SDS011;26963;42.666;23.366;2024-01-10T08:05:04;15.13;;;7.32;;
40204;SDS011;26963;42.666;23.366;2024-01-10T08:07:31;12.73;;;6.70;;
40204;SDS011;26963;42.666;23.366;2024-01-10T08:10:00;14.50;;;8.50;;
40204;SDS011;26963;42.666;23.366;2024-01-10T08:12:25;13.63;;;7.85;;
40204;SDS011;26963;42.666;23.366;2024-01-10T08:14:51;13.63;;;7.20;;
40204;SDS011;26963;42.666;23.366;2024-01-10T08:17:17;10.98;;;6.03;;
40204;SDS011;26963;42.666;23.366;2024-01-10T08:19:42;12.60;;;6.45;;
40204;SDS011;26963;42.666;23.366;2024-01-10T08:22:08;10.68;;;6.05;;
40204;SDS011;26963;42.666;23.366;2024-01-10T08:24:33;11.73;;;7.13;;
40204;SDS011;26963;42.666;23.366;2024-01-10T08:26:59;9.98;;;6.20;;
40204;SDS011;26963;42.666;23.366;2024-01-10T08:29:24;12.20;;;5.15;;
40204;SDS011;26963;42.666;23.366;2024-01-10T08:31:55;11.45;;;5.55;;
40204;SDS011;26963;42.666;23.366;2024-01-10T08:34:21;12.50;;;5.97;;
40204;SDS011;26963;42.666;23.366;2024-01-10T08:36:47;12.02;;;5.43;;
40204;SDS011;26963;42.666;23.366;2024-01-10T08:39:18;9.38;;;5.30;;
40204;SDS011;26963;42.666;23.366;2024-01-10T08:41:44;7.90;;;4.57;;
40204;SDS011;26963;42.666;23.366;2024-01-10T08:44:10;9.85;;;5.53;;
40204;SDS011;26963;42.666;23.366;2024-01-10T08:46:36;9.07;;;5.00;;
40204;SDS011;26963;42.666;23.366;2024-01-10T08:49:02;9.25;;;5.10;;
40204;SDS011;26963;42.666;23.366;2024-01-10T08:51:28;9.43;;;5.68;;
40204;SDS011;26963;42.666;23.366;2024-01-10T08:53:53;12.90;;;6.03;;
40204;SDS011;26963;42.666;23.366;2024-01-10T08:56:19;8.85;;;4.80;;
40204;SDS011;26963;42.666;23.366;2024-01-10T08:58:45;10.98;;;5.78;;
40204;SDS011;26963;42.666;23.366;2024-01-10T09:01:11;9.52;;;5.30;;
40204;SDS011;26963;42.666;23.366;2024-01-10T09:03:36;9.07;;;5.00;;
40204;SDS011;26963;42.666;23.366;2024-01-10T09:06:05;9.32;;;5.43;;
40204;SDS011;26963;42.666;23.366;2024-01-10T09:08:33;11.02;;;5.35;;
40204;SDS011;26963;42.666;23.366;2024-01-10T09:11:04;11.60;;;5.47;;
40204;SDS011;26963;42.666;23.366;2024-01-10T09:13:30;11.13;;;6.05;;
40204;SDS011;26963;42.666;23.366;2024-01-10T09:15:56;10.00;;;6.15;;
40204;SDS011;26963;42.666;23.366;2024-01-10T09:18:22;11.32;;;5.03;;
40204;SDS011;26963;42.666;23.366;2024-01-10T09:20:47;10.65;;;5.40;;
40204;SDS011;26963;42.666;23.366;2024-01-10T09:23:13;9.15;;;5.53;;
40204;SDS011;26963;42.666;23.366;2024-01-10T09:25:39;14.43;;;5.63;;
40204;SDS011;26963;42.666;23.366;2024-01-10T09:28:05;9.57;;;5.22;;
40204;SDS011;26963;42.666;23.366;2024-01-10T09:30:30;7.85;;;5.43;;
40204;SDS011;26963;42.666;23.366;2024-01-10T09:32:56;10.35;;;5.70;;
40204;SDS011;26963;42.666;23.366;2024-01-10T09:35:22;11.65;;;6.78;;
40204;SDS011;26963;42.666;23.366;2024-01-10T09:37:48;16.10;;;9.57;;
40204;SDS011;26963;42.666;23.366;2024-01-10T09:40:15;18.30;;;9.18;;
40204;SDS011;26963;42.666;23.366;2024-01-10T09:42:42;14.57;;;8.18;;
40204;SDS011;26963;42.666;23.366;2024-01-10T09:45:09;14.95;;;10.00;;
40204;SDS011;26963;42.666;23.366;2024-01-10T09:47:38;15.25;;;8.90;;
40204;SDS011;26963;42.666;23.366;2024-01-10T09:50:05;17.67;;;9.48;;
40204;SDS011;26963;42.666;23.366;2024-01-10T09:52:34;15.40;;;8.85;;
40204;SDS011;26963;42.666;23.366;2024-01-10T09:55:06;14.48;;;8.52;;
40204;SDS011;26963;42.666;23.366;2024-01-10T09:57:34;17.80;;;8.48;;
40204;SDS011;26963;42.666;23.366;2024-01-10T10:00:01;14.20;;;8.68;;
40204;SDS011;26963;42.666;23.366;2024-01-10T10:02:30;17.45;;;8.38;;
40204;SDS011;26963;42.666;23.366;2024-01-10T10:05:02;14.75;;;8.27;;
40204;SDS011;26963;42.666;23.366;2024-01-10T10:07:32;15.02;;;9.05;;
40204;SDS011;26963;42.666;23.366;2024-01-10T10:10:11;12.95;;;8.13;;
40204;SDS011;26963;42.666;23.366;2024-01-10T10:12:47;13.80;;;7.18;;
40204;SDS011;26963;42.666;23.366;2024-01-10T10:15:15;12.68;;;7.30;;
40204;SDS011;26963;42.666;23.366;2024-01-10T10:17:43;17.25;;;8.30;;
40204;SDS011;26963;42.666;23.366;2024-01-10T10:22:59;13.48;;;8.65;;
40204;SDS011;26963;42.666;23.366;2024-01-10T10:27:59;13.23;;;7.22;;
40204;SDS011;26963;42.666;23.366;2024-01-10T10:30:26;13.05;;;6.75;;
40204;SDS011;26963;42.666;23.366;2024-01-10T10:32:52;17.40;;;7.97;;
40204;SDS011;26963;42.666;23.366;2024-01-10T10:35:18;13.05;;;8.13;;
40204;SDS011;26963;42.666;23.366;2024-01-10T10:37:46;14.93;;;9.23;;
40204;SDS011;26963;42.666;23.366;2024-01-10T10:40:16;13.95;;;7.70;;
40204;SDS011;26963;42.666;23.366;2024-01-10T10:42:46;17.63;;;9.57;;
40204;SDS011;26963;42.666;23.366;2024-01-10T10:45:17;14.25;;;9.00;;
40204;SDS011;26963;42.666;23.366;2024-01-10T10:47:46;15.68;;;9.18;;
40204;SDS011;26963;42.666;23.366;2024-01-10T10:50:20;27.08;;;8.70;;
40204;SDS011;26963;42.666;23.366;2024-01-10T10:52:47;14.13;;;8.40;;
40204;SDS011;26963;42.666;23.366;2024-01-10T10:55:14;13.43;;;8.48;;
40204;SDS011;26963;42.666;23.366;2024-01-10T10:57:45;15.65;;;9.13;;
40204;SDS011;26963;42.666;23.366;2024-01-10T11:00:18;16.20;;;10.20;;
40204;SDS011;26963;42.666;23.366;2024-01-10T11:05:11;15.40;;;10.20;;
40204;SDS011;26963;42.666;23.366;2024-01-10T11:07:38;15.47;;;8.93;;
40204;SDS011;26963;42.666;23.366;2024-01-10T11:10:06;19.00;;;8.23;;
40204;SDS011;26963;42.666;23.366;2024-01-10T11:12:48;15.57;;;8.35;;
40204;SDS011;26963;42.666;23.366;2024-01-10T11:15:24;18.33;;;8.95;;
40204;SDS011;26963;42.666;23.366;2024-01-10T11:19:07;14.25;;;8.45;;
40204;SDS011;26963;42.666;23.366;2024-01-10T11:23:40;17.38;;;8.68;;
40204;SDS011;26963;42.666;23.366;2024-01-10T11:26:14;13.25;;;8.75;;
40204;SDS011;26963;42.666;23.366;2024-01-10T11:28:41;15.82;;;9.18;;
40204;SDS011;26963;42.666;23.366;2024-01-10T11:31:07;17.50;;;9.13;;
40204;SDS011;26963;42.666;23.366;2024-01-10T11:33:35;14.52;;;8.93;;
40204;SDS011;26963;42.666;23.366;2024-01-10T11:36:14;15.07;;;9.70;;
40204;SDS011;26963;42.666;23.366;2024-01-10T11:38:47;17.23;;;8.80;;
40204;SDS011;26963;42.666;23.366;2024-01-10T11:41:22;14.43;;;9.15;;
40204;SDS011;26963;42.666;23.366;2024-01-10T11:46:39;18.70;;;9.57;;
40204;SDS011;26963;42.666;23.366;2024-01-10T11:49:08;18.65;;;9.73;;
40204;SDS011;26963;42.666;23.366;2024-01-10T11:51:43;18.33;;;10.20;;
40204;SDS011;26963;42.666;23.366;2024-01-10T11:57:10;19.85;;;10.07;;
40204;SDS011;26963;42.666;23.366;2024-01-10T11:59:37;15.90;;;10.50;;
40204;SDS011;26963;42.666;23.366;2024-01-10T12:02:04;17.80;;;10.85;;
40204;SDS011;26963;42.666;23.366;2024-01-10T12:04:33;25.20;;;12.20;;
40204;SDS011;26963;42.666;23.366;2024-01-10T12:07:01;19.00;;;10.65;;
40204;SDS011;26963;42.666;23.366;2024-01-10T12:09:29;16.02;;;10.57;;
40204;SDS011;26963;42.666;23.366;2024-01-10T12:11:55;18.42;;;10.40;;
40204;SDS011;26963;42.666;23.366;2024-01-10T12:14:21;17.80;;;11.07;;
40204;SDS011;26963;42.666;23.366;2024-01-10T12:16:47;19.70;;;10.93;;
40204;SDS011;26963;42.666;23.366;2024-01-10T12:19:13;20.95;;;11.60;;
40204;SDS011;26963;42.666;23.366;2024-01-10T12:21:38;27.17;;;12.07;;
40204;SDS011;26963;42.666;23.366;2024-01-10T12:24:07;19.70;;;12.27;;
40204;SDS011;26963;42.666;23.366;2024-01-10T12:26:33;22.23;;;11.93;;
40204;SDS011;26963;42.666;23.366;2024-01-10T12:28:59;24.97;;;15.50;;
40204;SDS011;26963;42.666;23.366;2024-01-10T12:31:29;19.67;;;12.83;;
40204;SDS011;26963;42.666;23.366;2024-01-10T12:33:56;25.80;;;13.37;;
40204;SDS011;26963;42.666;23.366;2024-01-10T12:36:22;20.17;;;12.47;;
40204;SDS011;26963;42.666;23.366;2024-01-10T12:38:47;18.90;;;11.67;;
40204;SDS011;26963;42.666;23.366;2024-01-10T12:41:17;25.03;;;13.17;;
40204;SDS011;26963;42.666;23.366;2024-01-10T12:43:53;21.23;;;12.60;;
40204;SDS011;26963;42.666;23.366;2024-01-10T12:46:20;22.63;;;14.30;;
40204;SDS011;26963;42.666;23.366;2024-01-10T12:48:58;20.97;;;13.20;;
40204;SDS011;26963;42.666;23.366;2024-01-10T12:51:33;22.60;;;14.00;;
40204;SDS011;26963;42.666;23.366;2024-01-10T12:54:08;22.53;;;13.30;;
40204;SDS011;26963;42.666;23.366;2024-01-10T12:56:37;20.70;;;12.80;;
40204;SDS011;26963;42.666;23.366;2024-01-10T12:59:03;23.10;;;12.40;;
40204;SDS011;26963;42.666;23.366;2024-01-10T13:01:28;25.27;;;13.30;;
40204;SDS011;26963;42.666;23.366;2024-01-10T13:03:54;20.07;;;13.67;;
40204;SDS011;26963;42.666;23.366;2024-01-10T13:06:21;21.13;;;11.83;;
40204;SDS011;26963;42.666;23.366;2024-01-10T13:08:47;23.80;;;12.13;;
40204;SDS011;26963;42.666;23.366;2024-01-10T13:11:14;20.63;;;11.73;;
40204;SDS011;26963;42.666;23.366;2024-01-10T13:13:40;17.77;;;11.77;;
40204;SDS011;26963;42.666;23.366;2024-01-10T13:16:06;19.80;;;12.40;;
40204;SDS011;26963;42.666;23.366;2024-01-10T13:18:32;20.20;;;12.20;;
40204;SDS011;26963;42.666;23.366;2024-01-10T13:20:57;22.00;;;11.50;;
40204;SDS011;26963;42.666;23.366;2024-01-10T13:23:23;20.23;;;12.17;;
40204;SDS011;26963;42.666;23.366;2024-01-10T13:25:52;21.83;;;12.83;;
40204;SDS011;26963;42.666;23.366;2024-01-10T13:28:18;20.77;;;12.93;;
40204;SDS011;26963;42.666;23.366;2024-01-10T13:30:44;21.30;;;12.73;;
40204;SDS011;26963;42.666;23.366;2024-01-10T13:33:09;19.52;;;13.48;;
40204;SDS011;26963;42.666;23.366;2024-01-10T13:35:36;22.37;;;12.70;;
40204;SDS011;26963;42.666;23.366;2024-01-10T13:38:02;19.70;;;12.60;;
40204;SDS011;26963;42.666;23.366;2024-01-10T13:40:27;21.50;;;12.83;;
40204;SDS011;26963;42.666;23.366;2024-01-10T13:42:53;24.20;;;12.90;;
40204;SDS011;26963;42.666;23.366;2024-01-10T13:45:19;23.13;;;13.27;;
40204;SDS011;26963;42.666;23.366;2024-01-10T13:47:45;55.97;;;33.90;;
40204;SDS011;26963;42.666;23.366;2024-01-10T13:50:11;30.60;;;18.43;;
40204;SDS011;26963;42.666;23.366;2024-01-10T13:52:37;22.00;;;13.13;;
40204;SDS011;26963;42.666;23.366;2024-01-10T13:55:02;26.07;;;13.67;;
40204;SDS011;26963;42.666;23.366;2024-01-10T13:57:32;20.33;;;13.30;;
40204;SDS011;26963;42.666;23.366;2024-01-10T13:59:58;26.47;;;13.97;;
40204;SDS011;26963;42.666;23.366;2024-01-10T14:02:25;21.83;;;13.67;;
40204;SDS011;26963;42.666;23.366;2024-01-10T14:04:52;23.57;;;13.40;;
40204;SDS011;26963;42.666;23.366;2024-01-10T14:07:23;26.43;;;14.40;;
40204;SDS011;26963;42.666;23.366;2024-01-10T14:09:51;20.67;;;13.40;;
40204;SDS011;26963;42.666;23.366;2024-01-10T14:12:20;20.30;;;13.73;;
40204;SDS011;26963;42.666;23.366;2024-01-10T14:14:45;26.23;;;13.80;;
40204;SDS011;26963;42.666;23.366;2024-01-10T14:17:11;22.83;;;14.23;;
40204;SDS011;26963;42.666;23.366;2024-01-10T14:19:37;22.13;;;14.30;;
40204;SDS011;26963;42.666;23.366;2024-01-10T14:22:02;20.97;;;13.40;;
40204;SDS011;26963;42.666;23.366;2024-01-10T14:24:28;20.00;;;12.53;;
40204;SDS011;26963;42.666;23.366;2024-01-10T14:26:54;21.67;;;12.77;;
40204;SDS011;26963;42.666;23.366;2024-01-10T14:29:20;20.20;;;11.87;;
40204;SDS011;26963;42.666;23.366;2024-01-10T14:31:47;24.40;;;12.10;;
40204;SDS011;26963;42.666;23.366;2024-01-10T14:34:14;21.10;;;13.37;;
40204;SDS011;26963;42.666;23.366;2024-01-10T14:36:40;19.10;;;12.47;;
40204;SDS011;26963;42.666;23.366;2024-01-10T14:39:06;18.87;;;13.00;;
40204;SDS011;26963;42.666;23.366;2024-01-10T14:41:38;21.33;;;12.70;;